KEUF

Weedon Field Airport

Eufaula, Alabama, USA
METAR KEUF 231558Z AUTO 18006KT 10SM SCT017 26/19 A3037 RMK AO2 SLP281 T02560189
Observed Flight Rules
Feb-23 @ 15:58 UTC (40 minutes ago) Visual Flight Rules
Wind Visibility Clouds
180° at 6 knots 10 miles
  • Scattered at 1,700' AGL
Temperatures Readings
Current 26°C / 79°F
Dewpoint 19°C / 66°F
Humidity 65%
Altimeter 30.37" Hg
Pressure 1028.1 hPa
Elevation 87
METAR KEUF 231558Z AUTO 18006KT 10SM SCT017 26/19 A3037 RMK AO2 SLP281 T02560189
Observed Flight Rules
Feb-23 @ 15:58 UTC
(40 minutes ago)
VFR
Wind Visibility
180° at 6 knots 10 miles
Clouds
  • Scattered at 1,700' AGL
Temperature Dewpoint
26°C / 79°F 19°C / 66°F
Humidity Altimeter Pressure
65% 30.37" Hg 1028.1 hPa